createdAt,value
2022-08-24T00:00:23.293Z,99967.09
2022-08-24T00:03:12.210Z,99963.63
2022-08-24T00:06:00.041Z,99969.22
2022-08-24T00:08:50.150Z,99966.63
2022-08-24T00:11:37.782Z,99982.94
2022-08-24T00:14:26.069Z,99980.06
2022-08-24T00:17:13.778Z,99962.66
2022-08-24T00:20:05.176Z,99989.44
2022-08-24T00:22:55.257Z,99891.75
2022-08-24T00:25:47.655Z,99976.81
2022-08-24T00:28:43.017Z,99990.78
2022-08-24T00:31:33.178Z,99992.94
2022-08-24T00:34:23.380Z,99996.63
2022-08-24T00:37:13.330Z,99989.47
2022-08-24T00:40:01.082Z,99991.56
2022-08-24T00:42:50.856Z,99951.00
2022-08-24T00:46:00.080Z,99999.13
2022-08-24T00:48:51.485Z,99938.22
2022-08-24T00:52:05.589Z,99956.16
2022-08-24T00:54:58.299Z,100010.50
2022-08-24T01:00:46.276Z,99987.84
2022-08-24T01:03:38.601Z,100012.56
2022-08-24T01:06:26.952Z,100001.88
2022-08-24T01:09:14.733Z,100015.28
2022-08-24T01:12:05.329Z,100019.28
2022-08-24T01:14:53.823Z,100036.78
2022-08-24T01:18:01.025Z,100038.03
2022-08-24T01:20:57.094Z,100039.69
2022-08-24T01:24:10.849Z,100045.59
2022-08-24T01:26:59.353Z,100000.38
2022-08-24T01:29:48.105Z,100040.53
2022-08-24T01:32:36.003Z,100037.81
2022-08-24T01:35:25.110Z,100005.03
2022-08-24T01:38:13.216Z,100032.78
2022-08-24T01:41:03.766Z,100027.25
2022-08-24T01:43:51.757Z,100022.06
2022-08-24T01:46:44.917Z,100042.78
2022-08-24T01:49:35.106Z,100007.38
2022-08-24T01:52:25.921Z,100009.81
2022-08-24T01:55:19.295Z,100045.13
2022-08-24T01:58:16.128Z,100046.78
2022-08-24T02:01:04.069Z,100042.31
2022-08-24T02:03:51.958Z,100061.72
2022-08-24T02:06:42.105Z,100051.28
2022-08-24T02:09:31.293Z,100041.41
2022-08-24T02:12:22.310Z,100078.00
2022-08-24T02:15:11.719Z,100048.53
2022-08-24T02:18:00.302Z,100069.94
2022-08-24T02:20:48.891Z,100097.94
2022-08-24T02:23:38.106Z,100083.25
2022-08-24T02:26:25.901Z,100062.16
2022-08-24T02:29:19.202Z,100051.47
2022-08-24T02:32:07.473Z,100092.66
2022-08-24T02:34:55.207Z,100098.75
2022-08-24T02:37:46.225Z,100096.78
2022-08-24T02:40:35.967Z,100095.88
2022-08-24T02:43:24.829Z,100095.03
2022-08-24T02:46:21.165Z,100068.19
2022-08-24T02:49:11.720Z,100067.00
2022-08-24T02:52:05.555Z,100109.16
2022-08-24T02:54:56.616Z,100099.22
2022-08-24T02:57:44.865Z,100119.50
2022-08-24T03:00:36.631Z,100091.72
2022-08-24T03:03:24.393Z,100091.59
2022-08-24T03:06:12.611Z,100095.75
2022-08-24T03:09:00.368Z,100107.97
2022-08-24T03:11:51.054Z,100102.81
2022-08-24T03:14:39.022Z,100123.53
2022-08-24T03:17:26.866Z,100130.31
2022-08-24T03:20:18.671Z,100131.09
2022-08-24T03:23:06.462Z,100112.63
2022-08-24T03:25:56.683Z,100115.94
2022-08-24T03:28:45.151Z,100127.50
2022-08-24T03:31:33.696Z,100129.63
2022-08-24T03:34:22.815Z,100110.53
2022-08-24T03:37:10.798Z,100117.94
2022-08-24T03:40:01.335Z,100106.00
2022-08-24T03:42:49.192Z,100131.47
2022-08-24T03:45:37.555Z,100076.47
2022-08-24T03:48:26.627Z,100103.63
2022-08-24T03:51:19.199Z,100137.09
2022-08-24T03:54:13.556Z,100122.41
2022-08-24T03:57:02.200Z,100128.19
2022-08-24T03:59:49.907Z,100084.28
2022-08-24T04:02:38.170Z,100129.66
2022-08-24T04:05:25.865Z,100136.69
2022-08-24T04:08:13.883Z,100109.25
2022-08-24T04:11:06.405Z,100071.56
2022-08-24T04:13:59.565Z,100133.50
2022-08-24T04:16:51.618Z,100150.63
2022-08-24T04:20:00.059Z,100141.50
2022-08-24T04:22:51.778Z,100135.09
2022-08-24T04:25:45.217Z,100137.47
2022-08-24T04:31:23.000Z,100123.50
2022-08-24T04:34:18.707Z,100107.59
2022-08-24T04:37:11.216Z,100123.66
2022-08-24T04:39:59.928Z,100142.28
2022-08-24T04:42:59.017Z,100116.41
2022-08-24T04:45:48.850Z,100133.81
2022-08-24T04:48:36.683Z,100146.13
2022-08-24T04:51:24.530Z,100160.84
2022-08-24T04:54:12.322Z,100149.59
2022-08-24T04:57:00.630Z,100146.66
2022-08-24T04:59:48.711Z,100091.91
2022-08-24T05:02:42.997Z,100106.50
2022-08-24T05:05:33.725Z,100148.69
2022-08-24T05:08:24.789Z,100101.72
2022-08-24T05:11:14.264Z,100142.44
2022-08-24T05:14:02.375Z,100130.94
2022-08-24T05:16:52.860Z,100148.75
2022-08-24T05:19:45.346Z,100147.50
2022-08-24T05:22:33.446Z,100145.44
2022-08-24T05:25:24.293Z,100152.66
2022-08-24T05:28:14.996Z,100152.25
2022-08-24T05:31:13.794Z,100152.66
2022-08-24T05:34:03.338Z,100097.50
2022-08-24T05:36:53.476Z,100143.06
2022-08-24T05:40:08.088Z,100138.31
2022-08-24T05:43:01.926Z,100139.25
2022-08-24T05:45:50.098Z,100135.00
2022-08-24T05:48:38.483Z,100136.16
2022-08-24T05:51:35.560Z,100138.22
2022-08-24T05:54:27.855Z,100141.34
2022-08-24T05:57:25.658Z,100124.19
2022-08-24T06:00:33.694Z,100117.50
2022-08-24T06:03:21.914Z,100136.41
2022-08-24T06:06:13.819Z,100141.78
2022-08-24T06:09:01.877Z,100146.03
2022-08-24T06:11:54.233Z,100149.88
2022-08-24T06:14:46.242Z,100143.28
2022-08-24T06:17:28.662Z,100146.63
2022-08-24T06:20:22.467Z,100150.78
2022-08-24T06:23:11.276Z,100145.16
2022-08-24T06:26:26.993Z,100156.31
2022-08-24T06:29:16.469Z,100151.34
2022-08-24T06:32:08.751Z,100165.06
2022-08-24T06:34:57.966Z,100142.00
2022-08-24T06:37:46.491Z,100135.84
2022-08-24T06:40:34.503Z,100145.75
2022-08-24T06:43:24.700Z,100121.59
2022-08-24T06:46:14.982Z,100152.81
2022-08-24T06:49:06.852Z,100143.41
2022-08-24T06:51:56.965Z,100149.69
2022-08-24T06:54:45.303Z,100137.72
2022-08-24T06:57:34.053Z,100139.22
2022-08-24T07:00:22.720Z,100141.03
2022-08-24T07:03:10.967Z,100140.66
2022-08-24T07:06:07.903Z,100152.97
2022-08-24T07:09:01.052Z,100135.56
2022-08-24T07:11:50.696Z,100129.50
2022-08-24T07:14:41.962Z,100068.84
2022-08-24T07:17:31.499Z,100140.50
2022-08-24T07:20:19.474Z,100149.44
2022-08-24T07:23:41.261Z,100118.31
2022-08-24T07:26:31.839Z,100158.03
2022-08-24T07:29:46.336Z,100152.09
2022-08-24T07:32:36.442Z,100140.81
2022-08-24T07:35:27.033Z,100151.06
2022-08-24T07:38:15.215Z,100162.25
2022-08-24T07:41:35.507Z,100135.41
2022-08-24T07:44:12.954Z,100149.19
2022-08-24T07:47:10.582Z,100155.38
2022-08-24T07:50:22.439Z,100156.25
2022-08-24T07:53:14.893Z,100123.34
2022-08-24T07:56:05.419Z,100150.34
2022-08-24T07:58:55.732Z,100074.00
2022-08-24T08:01:44.222Z,100148.50
2022-08-24T08:04:32.598Z,100132.50
2022-08-24T08:07:21.214Z,100151.59
2022-08-24T08:10:12.415Z,100146.28
2022-08-24T08:13:00.530Z,100123.13
2022-08-24T08:15:50.839Z,100155.81
2022-08-24T08:18:38.872Z,100132.75
2022-08-24T08:21:50.611Z,100153.25
2022-08-24T08:24:40.418Z,100158.59
2022-08-24T08:27:29.624Z,100139.91
2022-08-24T08:30:18.253Z,100140.19
2022-08-24T08:33:07.661Z,100121.19
2022-08-24T08:36:25.401Z,100122.41
2022-08-24T08:39:18.949Z,100118.81
2022-08-24T08:42:39.093Z,100138.44
2022-08-24T08:45:45.211Z,100135.19
2022-08-24T08:49:30.157Z,100141.16
2022-08-24T08:52:45.755Z,100135.75
2022-08-24T08:56:09.805Z,100136.19
2022-08-24T08:59:30.675Z,100132.13
2022-08-24T09:02:29.251Z,100139.22
2022-08-24T09:05:45.706Z,100131.88
2022-08-24T09:08:58.010Z,100106.50
2022-08-24T09:12:19.508Z,100139.56
2022-08-24T09:15:28.446Z,100140.16
2022-08-24T09:18:31.403Z,100141.97
2022-08-24T09:21:47.670Z,100147.47
2022-08-24T09:25:00.062Z,100143.75
2022-08-24T09:28:14.613Z,100129.88
2022-08-24T09:31:28.915Z,100137.09
2022-08-24T09:34:42.968Z,100100.41
2022-08-24T09:38:01.363Z,100107.63
2022-08-24T09:41:20.400Z,100126.94
2022-08-24T09:44:17.120Z,100120.69
2022-08-24T09:47:10.586Z,100120.28
2022-08-24T09:50:30.210Z,100123.28
2022-08-24T09:53:23.881Z,100095.75
2022-08-24T09:56:26.399Z,100113.00
2022-08-24T09:59:51.131Z,100109.56
2022-08-24T10:02:54.078Z,100097.94
2022-08-24T10:06:04.074Z,100119.06
2022-08-24T10:09:28.076Z,100117.19
2022-08-24T10:12:56.370Z,100112.06
2022-08-24T10:16:21.999Z,100116.03
2022-08-24T10:19:31.091Z,100112.78
2022-08-24T10:22:48.640Z,100113.59
2022-08-24T10:25:51.864Z,100101.75
2022-08-24T10:28:55.655Z,100109.44
2022-08-24T10:32:07.719Z,100117.31
2022-08-24T10:35:09.968Z,100097.34
2022-08-24T10:38:19.118Z,100111.75
2022-08-24T10:41:19.428Z,100104.81
2022-08-24T10:44:45.213Z,100106.66
2022-08-24T10:47:36.961Z,100105.31
2022-08-24T10:50:31.541Z,100107.97
2022-08-24T10:53:38.097Z,100083.78
2022-08-24T10:56:52.418Z,100097.41
2022-08-24T10:59:58.134Z,100096.69
2022-08-24T11:02:47.236Z,100083.28
2022-08-24T11:05:48.179Z,100086.63
2022-08-24T11:08:36.135Z,100088.69
2022-08-24T11:11:29.849Z,100091.09
2022-08-24T11:14:23.715Z,100084.66
2022-08-24T11:17:24.242Z,100081.53
2022-08-24T11:20:30.524Z,100085.19
2022-08-24T11:23:31.684Z,100071.44
2022-08-24T11:26:22.487Z,100079.81
2022-08-24T11:29:10.383Z,100076.81
2022-08-24T11:31:59.255Z,100083.31
2022-08-24T11:34:47.244Z,100072.06
2022-08-24T11:37:38.063Z,100064.22
2022-08-24T11:40:29.786Z,100039.81
2022-08-24T11:43:56.321Z,100060.69
2022-08-24T11:47:03.714Z,100054.84
2022-08-24T11:50:07.367Z,100054.53
2022-08-24T11:52:54.965Z,100060.75
2022-08-24T11:55:51.489Z,100051.69
2022-08-24T11:58:55.294Z,100056.25
2022-08-24T12:02:01.040Z,100049.00
2022-08-24T12:05:21.341Z,100021.72
2022-08-24T12:08:43.215Z,100041.13
2022-08-24T12:11:41.743Z,100034.81
2022-08-24T12:14:49.099Z,100035.13
2022-08-24T12:18:03.444Z,100012.59
2022-08-24T12:20:53.045Z,99977.81
2022-08-24T12:23:50.725Z,100000.28
2022-08-24T12:26:47.143Z,100004.09
2022-08-24T12:29:55.437Z,100020.69
2022-08-24T12:32:53.949Z,100007.50
2022-08-24T12:35:48.728Z,100009.63
2022-08-24T12:38:45.976Z,99992.94
2022-08-24T12:41:39.640Z,100014.06
2022-08-24T12:44:37.766Z,100026.34
2022-08-24T12:47:57.989Z,100014.19
2022-08-24T12:50:51.185Z,100021.44
2022-08-24T12:53:45.668Z,100031.97
2022-08-24T12:57:16.227Z,100034.03
2022-08-24T13:00:13.651Z,100014.50
2022-08-24T13:03:07.323Z,100027.72
2022-08-24T13:06:00.972Z,100035.41
2022-08-24T13:08:51.509Z,100038.09
2022-08-24T13:11:39.353Z,100035.56
2022-08-24T13:14:29.841Z,100033.22
2022-08-24T13:17:19.560Z,100001.75
2022-08-24T13:20:23.924Z,100026.78
2022-08-24T13:23:12.064Z,100017.47
2022-08-24T13:26:18.643Z,100022.53
2022-08-24T13:29:08.604Z,100000.00
2022-08-24T13:31:59.932Z,100027.75
2022-08-24T13:34:51.304Z,100023.97
2022-08-24T13:37:39.173Z,100032.94
2022-08-24T13:40:28.416Z,100006.97
2022-08-24T13:43:55.731Z,100007.75
2022-08-24T13:47:26.372Z,100027.91
2022-08-24T13:50:43.691Z,100021.31
2022-08-24T13:54:20.306Z,100007.25
2022-08-24T13:57:21.823Z,100017.16
2022-08-24T14:00:44.183Z,100013.41
2022-08-24T14:04:06.733Z,100006.19
2022-08-24T14:07:28.237Z,100017.97
2022-08-24T14:10:37.487Z,99993.44
2022-08-24T14:13:45.277Z,100016.38
2022-08-24T14:17:23.938Z,100007.72
2022-08-24T14:20:39.837Z,99986.59
2022-08-24T14:23:46.192Z,100002.47
2022-08-24T14:26:33.822Z,100006.91
2022-08-24T14:29:31.834Z,100012.28
2022-08-24T14:32:30.219Z,100002.53
2022-08-24T14:35:25.564Z,99964.31
2022-08-24T14:38:25.473Z,100010.44
2022-08-24T14:41:30.835Z,100011.53
2022-08-24T14:44:48.875Z,100012.78
2022-08-24T14:47:57.087Z,99995.78
2022-08-24T14:51:34.555Z,100003.31
2022-08-24T14:54:40.039Z,99998.91
2022-08-24T14:57:49.214Z,99995.47
2022-08-24T15:01:09.347Z,99990.44
2022-08-24T15:04:02.976Z,100008.69
2022-08-24T15:07:21.725Z,99997.97
2022-08-24T15:10:15.012Z,99933.00
2022-08-24T15:13:10.336Z,100004.25
2022-08-24T15:16:05.367Z,100000.34
2022-08-24T15:19:27.060Z,100009.63
2022-08-24T15:22:44.132Z,100001.44
2022-08-24T15:26:06.136Z,100004.25
2022-08-24T15:28:56.746Z,99984.75
2022-08-24T15:32:00.331Z,100011.03
2022-08-24T15:34:58.566Z,99999.56
2022-08-24T15:37:46.556Z,99990.44
2022-08-24T15:40:34.477Z,99978.50
2022-08-24T15:43:22.733Z,99961.44
2022-08-24T15:46:11.925Z,99977.03
2022-08-24T15:49:14.583Z,99973.38
2022-08-24T15:52:07.025Z,99987.25
2022-08-24T15:55:03.896Z,99985.22
2022-08-24T15:57:51.695Z,99975.91
2022-08-24T16:00:59.586Z,99977.97
2022-08-24T16:03:51.569Z,99977.81
2022-08-24T16:06:46.607Z,99947.91
2022-08-24T16:09:40.392Z,99973.72
2022-08-24T16:12:32.385Z,99946.94
2022-08-24T16:15:21.009Z,99967.38
2022-08-24T16:18:08.653Z,99961.06
2022-08-24T16:20:59.367Z,99964.91
2022-08-24T16:23:56.178Z,99961.28
2022-08-24T16:26:46.953Z,99973.19
2022-08-24T16:29:42.199Z,99933.97
2022-08-24T16:32:37.062Z,99983.84
2022-08-24T16:35:39.017Z,99979.13
2022-08-24T16:38:31.757Z,99962.13
2022-08-24T16:41:22.933Z,99945.53
2022-08-24T16:44:11.304Z,99963.44
2022-08-24T16:46:59.015Z,99944.94
2022-08-24T16:49:46.852Z,99960.47
2022-08-24T16:52:34.922Z,99971.16
2022-08-24T16:55:23.160Z,99950.88
2022-08-24T16:58:11.515Z,99979.63
2022-08-24T17:00:59.638Z,99977.41
2022-08-24T17:03:47.468Z,99975.53
2022-08-24T17:06:50.697Z,99987.84
2022-08-24T17:09:42.870Z,99997.47
2022-08-24T17:12:31.460Z,99988.94
2022-08-24T17:15:19.313Z,99991.63
2022-08-24T17:18:10.602Z,100003.03
2022-08-24T17:20:58.569Z,100013.53
2022-08-24T17:23:46.426Z,100013.03
2022-08-24T17:26:34.287Z,99992.06
2022-08-24T17:29:22.495Z,99975.38
2022-08-24T17:32:10.454Z,100012.72
2022-08-24T17:34:58.389Z,100015.44
2022-08-24T17:37:46.318Z,100030.22
2022-08-24T17:40:35.440Z,100019.84
2022-08-24T17:43:25.029Z,100017.00
2022-08-24T17:46:14.579Z,100031.69
2022-08-24T17:49:02.398Z,100030.88
2022-08-24T17:51:50.665Z,100001.66
2022-08-24T17:54:38.373Z,100041.13
2022-08-24T17:57:29.737Z,100053.53
2022-08-24T18:00:18.198Z,100044.41
2022-08-24T18:03:06.552Z,100065.00
2022-08-24T18:05:54.356Z,100065.22
2022-08-24T18:11:51.350Z,100076.13
2022-08-24T18:14:42.191Z,100088.88
2022-08-24T18:17:44.127Z,100093.72
2022-08-24T18:20:36.589Z,100103.19
2022-08-24T18:23:24.700Z,100110.75
2022-08-24T18:26:15.511Z,100108.56
2022-08-24T18:29:17.623Z,100104.03
2022-08-24T18:32:05.701Z,100110.78
2022-08-24T18:34:54.536Z,100116.41
2022-08-24T18:37:42.856Z,100115.63
2022-08-24T18:40:33.184Z,100095.69
2022-08-24T18:43:24.859Z,100113.81
2022-08-24T18:46:13.054Z,100102.28
2022-08-24T18:49:01.896Z,100026.41
2022-08-24T18:51:50.674Z,100088.22
2022-08-24T18:54:41.757Z,100086.25
2022-08-24T18:57:29.598Z,100098.72
2022-08-24T19:00:17.825Z,100119.41
2022-08-24T19:03:08.050Z,100099.16
2022-08-24T19:05:56.497Z,100092.75
2022-08-24T19:08:44.216Z,100126.84
2022-08-24T19:11:32.042Z,100126.50
2022-08-24T19:14:19.779Z,100121.16
2022-08-24T19:17:07.744Z,100099.38
2022-08-24T19:19:55.439Z,100133.13
2022-08-24T19:22:47.759Z,100130.94
2022-08-24T19:25:37.514Z,100063.22
2022-08-24T19:28:27.260Z,100124.66
2022-08-24T19:31:15.538Z,100113.03
2022-08-24T19:34:03.760Z,100095.34
2022-08-24T19:36:51.565Z,100129.91
2022-08-24T19:39:39.443Z,100106.25
2022-08-24T19:42:27.462Z,100132.88
2022-08-24T19:45:34.992Z,100128.06
2022-08-24T19:48:24.774Z,100124.59
2022-08-24T19:51:14.291Z,100135.34
2022-08-24T19:54:02.405Z,100135.41
2022-08-24T19:56:53.293Z,100140.50
2022-08-24T19:59:43.290Z,100140.94
2022-08-24T20:02:31.735Z,100133.00
2022-08-24T20:05:21.453Z,100127.13
2022-08-24T20:08:11.146Z,100131.50
2022-08-24T20:11:00.730Z,100124.09
2022-08-24T20:13:50.419Z,100105.88
2022-08-24T20:16:42.497Z,100112.56
2022-08-24T20:19:36.062Z,100127.38
2022-08-24T20:22:23.990Z,100122.16
2022-08-24T20:25:11.762Z,100128.56
2022-08-24T20:28:27.695Z,100131.66
2022-08-24T20:31:09.800Z,100132.34
2022-08-24T20:33:57.688Z,100119.56
2022-08-24T20:36:49.252Z,100020.09
2022-08-24T20:39:36.951Z,100114.75
2022-08-24T20:42:26.910Z,100114.81
2022-08-24T20:45:15.414Z,100124.50
2022-08-24T20:48:05.142Z,100126.16
2022-08-24T20:50:52.943Z,100128.22
2022-08-24T20:53:40.657Z,100125.34
2022-08-24T20:56:35.165Z,100085.84
2022-08-24T20:59:22.929Z,100133.41
2022-08-24T21:02:10.662Z,100102.63
2022-08-24T21:04:58.874Z,100132.28
2022-08-24T21:07:52.658Z,100130.75
2022-08-24T21:10:50.996Z,100127.63
2022-08-24T21:13:38.662Z,100131.13
2022-08-24T21:16:29.652Z,100123.19
2022-08-24T21:19:17.954Z,100127.22
2022-08-24T21:22:06.373Z,100123.63
2022-08-24T21:24:54.602Z,100072.88
2022-08-24T21:27:44.328Z,100123.97
2022-08-24T21:30:34.913Z,100119.19
2022-08-24T21:33:41.355Z,100111.66
2022-08-24T21:36:32.076Z,100103.78
2022-08-24T21:39:19.838Z,100116.97
2022-08-24T21:42:07.734Z,100120.22
2022-08-24T21:44:55.419Z,100107.41
2022-08-24T21:47:43.419Z,100107.44
2022-08-24T21:50:31.103Z,100105.16
2022-08-24T21:53:18.807Z,100110.69
2022-08-24T21:56:06.829Z,100110.34
2022-08-24T21:58:54.921Z,100092.81
2022-08-24T22:01:43.872Z,100121.06
2022-08-24T22:04:32.247Z,100082.38
2022-08-24T22:07:20.376Z,100112.78
2022-08-24T22:10:09.092Z,100106.31
2022-08-24T22:12:59.810Z,100099.09
2022-08-24T22:15:51.578Z,100078.34
2022-08-24T22:18:41.131Z,100089.94
2022-08-24T22:21:31.196Z,100081.59
2022-08-24T22:24:24.187Z,100061.28
2022-08-24T22:27:11.978Z,100072.81
2022-08-24T22:29:59.996Z,100067.41
2022-08-24T22:32:47.946Z,100062.16
2022-08-24T22:35:45.229Z,100050.25
2022-08-24T22:38:33.293Z,99958.25
2022-08-24T22:41:22.036Z,100034.31
2022-08-24T22:44:22.100Z,100043.13
2022-08-24T22:47:13.169Z,100026.25
2022-08-24T22:50:03.393Z,100053.63
2022-08-24T22:52:51.038Z,100016.00
2022-08-24T22:55:38.808Z,100062.28
2022-08-24T22:58:28.004Z,100050.34
2022-08-24T23:01:24.941Z,100038.53
2022-08-24T23:04:17.536Z,100048.00
2022-08-24T23:07:06.823Z,100034.84
2022-08-24T23:09:54.612Z,100035.09
2022-08-24T23:12:42.362Z,100022.84
2022-08-24T23:15:30.356Z,100017.69
2022-08-24T23:18:36.574Z,100013.69
2022-08-24T23:21:24.949Z,99984.38
2022-08-24T23:24:16.165Z,99991.22
2022-08-24T23:27:05.511Z,100020.34
2022-08-24T23:29:53.507Z,100014.38
2022-08-24T23:32:41.251Z,100026.25
2022-08-24T23:35:29.057Z,100027.69
2022-08-24T23:38:31.908Z,99984.00
2022-08-24T23:41:31.742Z,100021.28
2022-08-24T23:44:26.101Z,100017.66
2022-08-24T23:47:13.737Z,100007.41
2022-08-24T23:50:01.435Z,100005.03
2022-08-24T23:52:49.286Z,100012.72
2022-08-24T23:55:37.056Z,100005.22
2022-08-24T23:58:24.806Z,100002.72
